createdAt,value
2022-11-10T00:01:08.906Z,100802.13
2022-11-10T00:03:37.039Z,100818.75
2022-11-10T00:06:05.083Z,100820.38
2022-11-10T00:08:31.871Z,100818.97
2022-11-10T00:10:58.530Z,100821.69
2022-11-10T00:13:35.393Z,100823.72
2022-11-10T00:16:23.342Z,100830.38
2022-11-10T00:18:50.431Z,100827.59
2022-11-10T00:21:18.079Z,100833.13
2022-11-10T00:23:47.385Z,100835.47
2022-11-10T00:26:16.731Z,100843.19
2022-11-10T00:28:44.218Z,100850.66
2022-11-10T00:31:11.527Z,100848.19
2022-11-10T00:33:40.087Z,100855.34
2022-11-10T00:36:06.985Z,100855.50
2022-11-10T00:38:33.406Z,100864.78
2022-11-10T00:41:01.069Z,100864.88
2022-11-10T00:43:29.645Z,100860.97
2022-11-10T00:45:56.940Z,100861.16
2022-11-10T00:48:23.598Z,100873.13
2022-11-10T00:50:50.157Z,100873.53
2022-11-10T00:53:16.728Z,100871.44
2022-11-10T00:55:43.814Z,100876.09
2022-11-10T00:58:10.323Z,100875.00
2022-11-10T01:00:36.737Z,100876.28
2022-11-10T01:03:03.757Z,100881.66
2022-11-10T01:05:30.693Z,100883.47
2022-11-10T01:07:59.492Z,100884.81
2022-11-10T01:10:26.799Z,100887.56
2022-11-10T01:12:53.958Z,100884.41
2022-11-10T01:15:26.002Z,100886.66
2022-11-10T01:17:55.554Z,100887.00
2022-11-10T01:20:22.841Z,100894.56
2022-11-10T01:22:49.351Z,100895.94
2022-11-10T01:25:15.993Z,100903.00
2022-11-10T01:27:42.383Z,100902.25
2022-11-10T01:30:09.056Z,100902.38
2022-11-10T01:32:35.472Z,100910.41
2022-11-10T01:35:02.029Z,100908.53
2022-11-10T01:37:28.472Z,100916.06
2022-11-10T01:39:54.972Z,100926.94
2022-11-10T01:42:38.038Z,100923.13
2022-11-10T01:46:06.003Z,100930.22
2022-11-10T01:48:48.753Z,100919.59
2022-11-10T01:51:20.724Z,100925.53
2022-11-10T01:53:52.059Z,100928.69
2022-11-10T01:56:19.100Z,100936.00
2022-11-10T01:58:54.846Z,100942.88
2022-11-10T02:01:21.323Z,100936.25
2022-11-10T02:03:51.349Z,100947.66
2022-11-10T02:06:20.892Z,100956.97
2022-11-10T02:08:48.761Z,100954.06
2022-11-10T02:11:15.560Z,100955.28
2022-11-10T02:13:42.976Z,100961.00
2022-11-10T02:16:10.605Z,100958.38
2022-11-10T02:18:38.439Z,100962.03
2022-11-10T02:21:06.845Z,100973.19
2022-11-10T02:23:36.235Z,100970.38
2022-11-10T02:26:05.739Z,100975.75
2022-11-10T02:28:37.010Z,100971.03
2022-11-10T02:31:05.226Z,100972.66
2022-11-10T02:33:31.684Z,100982.59
2022-11-10T02:35:58.109Z,100982.81
2022-11-10T02:38:24.564Z,100988.19
2022-11-10T02:40:51.028Z,100989.25
2022-11-10T02:43:19.439Z,100993.81
2022-11-10T02:45:46.077Z,100999.84
2022-11-10T02:48:14.297Z,100995.50
2022-11-10T02:50:41.333Z,101002.00
2022-11-10T02:53:08.047Z,101010.81
2022-11-10T02:55:34.452Z,101003.59
2022-11-10T02:58:01.143Z,101012.72
2022-11-10T03:00:27.948Z,101014.22
2022-11-10T03:03:05.055Z,101017.91
2022-11-10T03:05:32.384Z,101026.19
2022-11-10T03:08:01.258Z,101020.00
2022-11-10T03:10:28.930Z,101026.94
2022-11-10T03:13:01.163Z,101028.34
2022-11-10T03:15:28.632Z,101035.19
2022-11-10T03:17:55.765Z,101031.66
2022-11-10T03:20:22.192Z,101041.13
2022-11-10T03:22:48.707Z,101040.47
2022-11-10T03:25:15.187Z,101044.00
2022-11-10T03:27:41.628Z,101058.28
2022-11-10T03:30:08.518Z,101049.59
2022-11-10T03:32:35.032Z,101053.59
2022-11-10T03:35:02.300Z,101059.31
2022-11-10T03:37:28.764Z,101066.81
2022-11-10T03:39:55.268Z,101067.78
2022-11-10T03:42:21.819Z,101070.25
2022-11-10T03:44:48.432Z,101067.06
2022-11-10T03:47:14.911Z,101072.53
2022-11-10T03:49:41.371Z,101066.03
2022-11-10T03:52:07.759Z,101078.03
2022-11-10T03:54:34.181Z,101079.28
2022-11-10T03:57:00.593Z,101081.47
2022-11-10T03:59:26.985Z,101086.38
2022-11-10T04:01:53.468Z,101085.47
2022-11-10T04:04:38.184Z,101085.59
2022-11-10T04:07:22.960Z,101090.38
2022-11-10T04:09:49.398Z,101099.19
2022-11-10T04:12:34.603Z,101091.28
2022-11-10T04:15:19.385Z,101105.22
2022-11-10T04:17:52.041Z,101101.56
2022-11-10T04:20:18.538Z,101104.66
2022-11-10T04:23:03.275Z,101105.09
2022-11-10T04:25:29.698Z,101098.00
2022-11-10T04:27:56.103Z,101106.13
2022-11-10T04:30:22.514Z,101115.59
2022-11-10T04:32:48.902Z,101111.03
2022-11-10T04:35:15.468Z,101116.28
2022-11-10T04:37:41.947Z,101122.41
2022-11-10T04:40:08.814Z,101123.56
2022-11-10T04:42:35.185Z,101124.78
2022-11-10T04:45:01.593Z,101126.69
2022-11-10T04:47:27.985Z,101128.50
2022-11-10T04:49:54.344Z,101139.63
2022-11-10T04:52:20.740Z,101136.34
2022-11-10T04:54:47.107Z,101133.78
2022-11-10T04:57:13.508Z,101137.19
2022-11-10T04:59:39.929Z,101151.59
2022-11-10T05:02:06.351Z,101142.09
2022-11-10T05:04:32.740Z,101147.44
2022-11-10T05:06:59.199Z,101147.22
2022-11-10T05:09:25.606Z,101154.03
2022-11-10T05:11:52.005Z,101166.84
2022-11-10T05:14:18.499Z,101170.34
2022-11-10T05:16:44.957Z,101175.88
2022-11-10T05:19:11.351Z,101178.59
2022-11-10T05:21:37.825Z,101178.09
2022-11-10T05:24:04.356Z,101188.22
2022-11-10T05:26:30.745Z,101196.84
2022-11-10T05:28:57.337Z,101194.72
2022-11-10T05:31:23.818Z,101196.97
2022-11-10T05:33:50.228Z,101205.06
2022-11-10T05:36:16.695Z,101212.19
2022-11-10T05:38:43.983Z,101218.00
2022-11-10T05:41:11.078Z,101223.34
2022-11-10T05:43:37.509Z,101228.72
2022-11-10T05:46:03.987Z,101226.56
2022-11-10T05:48:30.459Z,101222.09
2022-11-10T05:50:56.909Z,101225.75
2022-11-10T05:53:23.747Z,101231.16
2022-11-10T05:55:50.509Z,101230.25
2022-11-10T05:58:17.013Z,101225.69
2022-11-10T06:00:43.482Z,101238.16
2022-11-10T06:03:15.472Z,101244.03
2022-11-10T06:05:41.987Z,101247.53
2022-11-10T06:08:09.006Z,101250.13
2022-11-10T06:10:36.808Z,101256.94
2022-11-10T06:13:04.100Z,101264.50
2022-11-10T06:15:30.900Z,101267.09
2022-11-10T06:17:58.132Z,101267.44
2022-11-10T06:20:25.355Z,101276.78
2022-11-10T06:23:20.285Z,101280.16
2022-11-10T06:25:46.944Z,101291.00
2022-11-10T06:28:14.691Z,101296.53
2022-11-10T06:30:41.111Z,101307.09
2022-11-10T06:33:07.534Z,101310.84
2022-11-10T06:38:02.961Z,101323.19
2022-11-10T06:40:30.546Z,101328.53
2022-11-10T06:42:57.794Z,101332.47
2022-11-10T06:45:24.990Z,101349.38
2022-11-10T06:48:01.382Z,101357.31
2022-11-10T06:50:27.933Z,101360.81
2022-11-10T06:55:23.221Z,101371.78
2022-11-10T06:57:49.929Z,101378.16
2022-11-10T07:00:17.085Z,101370.22
2022-11-10T07:02:43.518Z,101368.59
2022-11-10T07:05:09.931Z,101383.69
2022-11-10T07:07:36.340Z,101382.06
2022-11-10T07:10:06.739Z,101384.97
2022-11-10T07:12:33.656Z,101389.16
2022-11-10T07:15:00.076Z,101397.28
2022-11-10T07:17:26.506Z,101398.16
2022-11-10T07:19:52.923Z,101403.19
2022-11-10T07:22:19.317Z,101409.09
2022-11-10T07:24:45.766Z,101419.34
2022-11-10T07:27:12.165Z,101423.53
2022-11-10T07:29:39.760Z,101412.31
2022-11-10T07:32:06.167Z,101434.78
2022-11-10T07:34:32.578Z,101436.25
2022-11-10T07:36:59.208Z,101433.50
2022-11-10T07:39:25.617Z,101440.78
2022-11-10T07:41:53.044Z,101445.38
2022-11-10T07:44:19.535Z,101448.56
2022-11-10T07:46:45.970Z,101450.75
2022-11-10T07:49:12.461Z,101452.88
2022-11-10T07:51:38.915Z,101456.09
2022-11-10T07:54:05.597Z,101457.31
2022-11-10T07:56:32.026Z,101460.22
2022-11-10T07:58:58.459Z,101473.75
2022-11-10T08:01:25.027Z,101464.75
2022-11-10T08:03:51.508Z,101468.22
2022-11-10T08:06:18.018Z,101458.13
2022-11-10T08:08:46.969Z,101454.84
2022-11-10T08:11:13.394Z,101468.00
2022-11-10T08:13:39.878Z,101468.72
2022-11-10T08:16:06.525Z,101471.47
2022-11-10T08:18:35.540Z,101474.84
2022-11-10T08:21:03.223Z,101475.91
2022-11-10T08:23:29.732Z,101481.00
2022-11-10T08:26:00.276Z,101495.28
2022-11-10T08:28:27.516Z,101484.03
2022-11-10T08:30:54.049Z,101493.69
2022-11-10T08:33:21.934Z,101509.03
2022-11-10T08:35:50.894Z,101511.41
2022-11-10T08:38:20.072Z,101515.22
2022-11-10T08:40:46.689Z,101523.75
2022-11-10T08:43:14.084Z,101530.22
2022-11-10T08:45:43.008Z,101530.53
2022-11-10T08:48:18.466Z,101522.56
2022-11-10T08:50:45.508Z,101538.00
2022-11-10T08:53:14.398Z,101538.28
2022-11-10T08:55:42.177Z,101540.81
2022-11-10T08:58:12.643Z,101547.25
2022-11-10T09:00:39.549Z,101542.28
2022-11-10T09:03:13.546Z,101544.44
2022-11-10T09:05:40.367Z,101550.31
2022-11-10T09:08:07.112Z,101556.63
2022-11-10T09:10:35.658Z,101555.94
2022-11-10T09:13:03.551Z,101553.00
2022-11-10T09:15:31.072Z,101556.28
2022-11-10T09:17:59.677Z,101569.47
2022-11-10T09:20:28.071Z,101570.88
2022-11-10T09:22:54.754Z,101578.91
2022-11-10T09:25:21.638Z,101583.56
2022-11-10T09:27:48.103Z,101593.25
2022-11-10T09:30:17.834Z,101585.66
2022-11-10T09:32:46.777Z,101590.81
2022-11-10T09:35:13.671Z,101598.63
2022-11-10T09:37:40.506Z,101601.84
2022-11-10T09:40:13.080Z,101608.75
2022-11-10T09:42:41.403Z,101605.66
2022-11-10T09:45:22.676Z,101615.19
2022-11-10T09:48:05.194Z,101619.78
2022-11-10T09:50:37.891Z,101613.34
2022-11-10T09:53:10.044Z,101623.41
2022-11-10T09:55:44.515Z,101629.16
2022-11-10T09:58:13.423Z,101624.44
2022-11-10T10:00:44.930Z,101629.31
2022-11-10T10:03:17.956Z,101627.72
2022-11-10T10:05:47.359Z,101631.72
2022-11-10T10:08:36.405Z,101633.72
2022-11-10T10:11:14.645Z,101635.06
2022-11-10T10:14:07.440Z,101636.00
2022-11-10T10:16:59.901Z,101639.41
2022-11-10T10:19:57.679Z,101649.53
2022-11-10T10:22:45.536Z,101649.53
2022-11-10T10:25:19.374Z,101662.00
2022-11-10T10:27:49.145Z,101660.31
2022-11-10T10:30:19.322Z,101656.75
2022-11-10T10:32:45.868Z,101662.44
2022-11-10T10:35:14.800Z,101669.13
2022-11-10T10:37:48.200Z,101663.25
2022-11-10T10:40:17.525Z,101661.31
2022-11-10T10:42:44.062Z,101670.03
2022-11-10T10:45:19.120Z,101672.44
2022-11-10T10:47:47.167Z,101669.72
2022-11-10T10:50:28.606Z,101662.69
2022-11-10T10:53:07.349Z,101655.06
2022-11-10T10:55:36.895Z,101663.03
2022-11-10T10:58:22.641Z,101656.19
2022-11-10T11:00:56.620Z,101661.69
2022-11-10T11:03:37.270Z,101670.50
2022-11-10T11:06:08.169Z,101679.69
2022-11-10T11:08:34.772Z,101682.19
2022-11-10T11:11:10.107Z,101679.22
2022-11-10T11:13:36.927Z,101684.53
2022-11-10T11:16:07.690Z,101677.25
2022-11-10T11:18:38.160Z,101672.22
2022-11-10T11:21:33.508Z,101685.16
2022-11-10T11:24:28.305Z,101686.31
2022-11-10T11:27:34.037Z,101681.31
2022-11-10T11:30:08.926Z,101680.16
2022-11-10T11:33:19.532Z,101684.00
2022-11-10T11:35:55.345Z,101686.16
2022-11-10T11:38:33.178Z,101681.78
2022-11-10T11:41:37.105Z,101692.16
2022-11-10T11:44:03.521Z,101699.72
2022-11-10T11:46:46.391Z,101694.31
2022-11-10T11:49:52.751Z,101698.56
2022-11-10T11:52:34.632Z,101701.66
2022-11-10T11:55:19.331Z,101702.59
2022-11-10T11:57:52.955Z,101716.00
2022-11-10T12:00:20.437Z,101720.44
2022-11-10T12:03:28.136Z,101716.78
2022-11-10T12:06:12.033Z,101724.34
2022-11-10T12:08:43.233Z,101716.44
2022-11-10T12:11:44.193Z,101726.66
2022-11-10T12:14:13.616Z,101733.06
2022-11-10T12:16:45.029Z,101728.91
2022-11-10T12:19:32.719Z,101727.56
2022-11-10T12:22:13.066Z,101730.38
2022-11-10T12:24:57.198Z,101731.06
2022-11-10T12:27:33.357Z,101733.47
2022-11-10T12:30:04.494Z,101725.16
2022-11-10T12:32:46.651Z,101719.84
2022-11-10T12:35:22.634Z,101729.50
2022-11-10T12:38:01.402Z,101739.59
2022-11-10T12:40:37.980Z,101742.13
2022-11-10T12:43:17.987Z,101742.72
2022-11-10T12:45:47.480Z,101750.53
2022-11-10T12:48:15.949Z,101762.34
2022-11-10T12:50:49.360Z,101748.38
2022-11-10T12:53:23.207Z,101759.63
2022-11-10T12:56:23.987Z,101757.78
2022-11-10T12:59:13.952Z,101760.97
2022-11-10T13:01:46.006Z,101771.78
2022-11-10T13:04:16.704Z,101774.06
2022-11-10T13:06:52.962Z,101765.22
2022-11-10T13:09:29.949Z,101772.03
2022-11-10T13:12:23.145Z,101779.97
2022-11-10T13:14:49.776Z,101766.97
2022-11-10T13:17:28.695Z,101772.03
2022-11-10T13:20:09.379Z,101788.75
2022-11-10T13:22:44.015Z,101788.56
2022-11-10T13:25:36.657Z,101798.09
2022-11-10T13:28:04.544Z,101791.69
2022-11-10T13:30:46.053Z,101780.91
2022-11-10T13:33:35.540Z,101787.22
2022-11-10T13:36:02.051Z,101778.09
2022-11-10T13:38:37.463Z,101783.81
2022-11-10T13:41:19.816Z,101780.47
2022-11-10T13:43:54.266Z,101796.44
2022-11-10T13:46:34.634Z,101800.09
2022-11-10T13:49:22.124Z,101803.66
2022-11-10T13:52:06.298Z,101804.22
2022-11-10T13:54:38.728Z,101810.16
2022-11-10T13:57:27.149Z,101813.13
2022-11-10T14:00:00.498Z,101815.09
2022-11-10T14:02:33.105Z,101813.84
2022-11-10T14:05:04.704Z,101806.50
2022-11-10T14:07:38.325Z,101811.41
2022-11-10T14:10:12.171Z,101809.19
2022-11-10T14:12:46.256Z,101804.97
2022-11-10T14:15:17.639Z,101806.91
2022-11-10T14:17:50.260Z,101819.28
2022-11-10T14:20:37.793Z,101819.50
2022-11-10T14:23:40.595Z,101820.75
2022-11-10T14:26:16.925Z,101832.91
2022-11-10T14:28:43.332Z,101844.03
2022-11-10T14:31:19.319Z,101852.28
2022-11-10T14:33:54.365Z,101854.09
2022-11-10T14:36:20.933Z,101847.72
2022-11-10T14:38:48.008Z,101861.44
2022-11-10T14:41:22.595Z,101863.50
2022-11-10T14:44:03.893Z,101873.69
2022-11-10T14:46:30.431Z,101875.03
2022-11-10T14:48:59.551Z,101879.94
2022-11-10T14:51:28.964Z,101885.91
2022-11-10T14:53:57.265Z,101883.69
2022-11-10T14:56:28.929Z,101890.19
2022-11-10T14:58:59.064Z,101888.13
2022-11-10T15:01:38.695Z,101893.44
2022-11-10T15:04:08.522Z,101895.38
2022-11-10T15:06:35.972Z,101892.59
2022-11-10T15:09:13.912Z,101899.50
2022-11-10T15:11:48.895Z,101889.38
2022-11-10T15:14:33.694Z,101900.81
2022-11-10T15:17:07.934Z,101895.13
2022-11-10T15:19:46.537Z,101890.53
2022-11-10T15:22:16.434Z,101889.56
2022-11-10T15:24:44.437Z,101903.94
2022-11-10T15:27:23.936Z,101896.41
2022-11-10T15:29:51.329Z,101900.91
2022-11-10T15:32:23.518Z,101902.25
2022-11-10T15:34:50.767Z,101898.34
2022-11-10T15:37:31.080Z,101894.81
2022-11-10T15:40:44.141Z,101888.34
2022-11-10T15:43:15.383Z,101889.03
2022-11-10T15:45:43.725Z,101880.16
2022-11-10T15:48:13.685Z,101891.25
2022-11-10T15:50:42.121Z,101880.47
2022-11-10T15:53:13.999Z,101882.28
2022-11-10T15:55:42.115Z,101881.78
2022-11-10T15:58:13.169Z,101888.91
2022-11-10T16:00:39.742Z,101895.19
2022-11-10T16:03:10.461Z,101893.56
2022-11-10T16:05:39.987Z,101896.94
2022-11-10T16:08:34.580Z,101895.47
2022-11-10T16:11:01.509Z,101901.47
2022-11-10T16:13:30.440Z,101914.06
2022-11-10T16:16:00.916Z,101899.50
2022-11-10T16:18:29.922Z,101905.66
2022-11-10T16:20:56.650Z,101911.97
2022-11-10T16:23:24.011Z,101904.28
2022-11-10T16:25:54.511Z,101903.03
2022-11-10T16:28:26.991Z,101917.59
2022-11-10T16:30:54.361Z,101921.63
2022-11-10T16:33:23.234Z,101916.78
2022-11-10T16:35:51.954Z,101918.88
2022-11-10T16:38:29.348Z,101922.59
2022-11-10T16:41:00.891Z,101927.50
2022-11-10T16:43:29.026Z,101920.72
2022-11-10T16:45:58.822Z,101924.88
2022-11-10T16:48:30.460Z,101929.34
2022-11-10T16:50:58.895Z,101931.44
2022-11-10T16:53:28.480Z,101938.34
2022-11-10T16:55:55.067Z,101946.44
2022-11-10T16:58:22.020Z,101948.84
2022-11-10T17:00:48.946Z,101962.38
2022-11-10T17:03:36.481Z,101972.06
2022-11-10T17:06:05.196Z,101968.69
2022-11-10T17:08:34.212Z,101979.34
2022-11-10T17:11:01.662Z,101991.94
2022-11-10T17:13:28.053Z,101995.78
2022-11-10T17:16:03.068Z,101996.09
2022-11-10T17:18:29.651Z,101995.94
2022-11-10T17:20:56.361Z,102002.06
2022-11-10T17:23:25.352Z,101987.34
2022-11-10T17:25:54.076Z,101988.94
2022-11-10T17:28:20.567Z,101991.69
2022-11-10T17:30:47.259Z,101991.34
2022-11-10T17:33:13.888Z,101994.91
2022-11-10T17:35:45.017Z,101996.53
2022-11-10T17:38:14.674Z,101992.84
2022-11-10T17:40:42.946Z,101986.19
2022-11-10T17:43:11.962Z,101993.94
2022-11-10T17:45:38.724Z,102001.06
2022-11-10T17:48:05.611Z,101997.50
2022-11-10T17:50:32.798Z,102001.84
2022-11-10T17:53:04.341Z,101991.50
2022-11-10T17:55:34.256Z,101988.59
2022-11-10T17:58:01.057Z,101994.25
2022-11-10T18:00:27.619Z,101999.44
2022-11-10T18:02:55.461Z,102002.50
2022-11-10T18:05:22.028Z,101995.72
2022-11-10T18:07:52.027Z,102004.63
2022-11-10T18:10:18.679Z,101999.25
2022-11-10T18:12:45.217Z,102002.84
2022-11-10T18:15:16.559Z,102010.91
2022-11-10T18:17:43.290Z,102012.91
2022-11-10T18:20:10.967Z,102011.91
2022-11-10T18:22:37.492Z,102010.91
2022-11-10T18:25:04.853Z,102001.75
2022-11-10T18:27:31.721Z,102008.84
2022-11-10T18:29:58.202Z,102000.16
2022-11-10T18:32:24.676Z,102006.31
2022-11-10T18:34:51.203Z,102008.72
2022-11-10T18:37:19.015Z,102011.25
2022-11-10T18:39:45.442Z,102019.16
2022-11-10T18:42:12.010Z,102005.47
2022-11-10T18:44:39.120Z,102000.28
2022-11-10T18:47:07.374Z,102013.19
2022-11-10T18:49:33.806Z,102018.16
2022-11-10T18:52:00.497Z,102021.06
2022-11-10T18:54:27.498Z,102018.88
2022-11-10T18:56:54.244Z,102022.88
2022-11-10T18:59:20.857Z,102022.88
2022-11-10T19:01:47.626Z,102027.03
2022-11-10T19:04:14.291Z,102026.56
2022-11-10T19:06:41.031Z,102031.72
2022-11-10T19:09:07.519Z,102034.00
2022-11-10T19:11:34.383Z,102027.22
2022-11-10T19:14:01.988Z,102024.16
2022-11-10T19:16:28.928Z,102020.25
2022-11-10T19:18:56.124Z,102021.22
2022-11-10T19:21:26.318Z,102018.16
2022-11-10T19:23:57.171Z,102013.97
2022-11-10T19:26:25.252Z,102022.34
2022-11-10T19:28:55.328Z,102017.97
2022-11-10T19:31:23.477Z,102024.44
2022-11-10T19:33:52.874Z,102012.84
2022-11-10T19:36:30.083Z,102016.19
2022-11-10T19:38:56.938Z,102018.47
2022-11-10T19:41:28.756Z,102020.56
2022-11-10T19:43:55.461Z,102022.81
2022-11-10T19:46:30.294Z,102035.06
2022-11-10T19:48:57.219Z,102037.53
2022-11-10T19:51:24.782Z,102041.88
2022-11-10T19:54:02.018Z,102045.63
2022-11-10T19:56:31.973Z,102058.53
2022-11-10T19:58:59.073Z,102057.06
2022-11-10T20:01:26.412Z,102062.56
2022-11-10T20:03:53.132Z,102064.31
2022-11-10T20:06:22.475Z,102069.03
2022-11-10T20:08:49.648Z,102066.44
2022-11-10T20:11:22.864Z,102079.53
2022-11-10T20:13:54.666Z,102069.53
2022-11-10T20:16:22.422Z,102068.88
2022-11-10T20:18:48.901Z,102071.94
2022-11-10T20:21:20.081Z,102071.78
2022-11-10T20:23:52.359Z,102077.31
2022-11-10T20:26:18.777Z,102077.31
2022-11-10T20:28:45.291Z,102092.19
2022-11-10T20:31:30.053Z,102090.25
2022-11-10T20:33:56.723Z,102096.69
2022-11-10T20:36:28.122Z,102108.69
2022-11-10T20:38:56.439Z,102112.59
2022-11-10T20:41:25.826Z,102128.09
2022-11-10T20:43:52.405Z,102125.19
2022-11-10T20:46:53.090Z,102124.03
2022-11-10T20:49:07.397Z,102122.91
2022-11-10T20:51:33.828Z,102133.41
2022-11-10T20:54:01.252Z,102131.00
2022-11-10T20:56:29.904Z,102120.81
2022-11-10T20:58:57.366Z,102111.28
2022-11-10T21:01:23.845Z,102118.06
2022-11-10T21:03:50.490Z,102119.03
2022-11-10T21:06:17.377Z,102108.19
2022-11-10T21:08:43.845Z,102105.44
2022-11-10T21:11:11.098Z,102106.59
2022-11-10T21:13:38.862Z,102087.84
2022-11-10T21:16:06.251Z,102098.84
2022-11-10T21:18:35.527Z,102090.94
2022-11-10T21:21:03.665Z,102095.59
2022-11-10T21:23:30.133Z,102100.44
2022-11-10T21:25:58.959Z,102103.69
2022-11-10T21:28:25.750Z,102101.25
2022-11-10T21:30:52.297Z,102101.72
2022-11-10T21:33:18.782Z,102111.09
2022-11-10T21:35:45.176Z,102110.78
2022-11-10T21:38:12.482Z,102126.94
2022-11-10T21:40:39.573Z,102120.16
2022-11-10T21:43:06.313Z,102128.72
2022-11-10T21:45:32.727Z,102135.03
2022-11-10T21:48:03.079Z,102125.66
2022-11-10T21:50:29.649Z,102125.66
2022-11-10T21:52:56.096Z,102125.97
2022-11-10T21:55:22.555Z,102122.25
2022-11-10T21:57:54.937Z,102126.31
2022-11-10T22:00:21.608Z,102121.78
2022-11-10T22:02:48.013Z,102121.28
2022-11-10T22:05:14.476Z,102124.06
2022-11-10T22:07:40.953Z,102125.97
2022-11-10T22:13:07.029Z,102127.75
2022-11-10T22:15:51.688Z,102136.31
2022-11-10T22:18:37.024Z,102139.25
2022-11-10T22:21:04.912Z,102140.69
2022-11-10T22:23:51.694Z,102140.22
2022-11-10T22:26:18.742Z,102142.94
2022-11-10T22:28:45.797Z,102140.69
2022-11-10T22:31:12.836Z,102148.63
2022-11-10T22:33:41.510Z,102150.53
2022-11-10T22:36:12.790Z,102153.63
2022-11-10T22:38:41.131Z,102148.28
2022-11-10T22:41:31.752Z,102145.25
2022-11-10T22:44:04.266Z,102143.31
2022-11-10T22:46:34.719Z,102155.91
2022-11-10T22:49:02.721Z,102155.25
2022-11-10T22:51:30.839Z,102162.03
2022-11-10T22:53:57.791Z,102157.19
2022-11-10T22:56:24.711Z,102168.84
2022-11-10T22:58:56.968Z,102169.47
2022-11-10T23:01:26.065Z,102173.00
2022-11-10T23:03:52.554Z,102160.25
2022-11-10T23:06:19.092Z,102159.16
2022-11-10T23:08:45.587Z,102161.72
2022-11-10T23:11:17.387Z,102159.13
2022-11-10T23:13:43.677Z,102167.03
2022-11-10T23:16:13.279Z,102162.81
2022-11-10T23:18:41.851Z,102163.50
2022-11-10T23:21:10.994Z,102163.97
2022-11-10T23:23:38.763Z,102164.44
2022-11-10T23:26:08.066Z,102163.91
2022-11-10T23:28:35.600Z,102172.47
2022-11-10T23:31:04.760Z,102171.75
2022-11-10T23:33:33.009Z,102176.13
2022-11-10T23:36:00.248Z,102172.28
2022-11-10T23:38:29.824Z,102164.97
2022-11-10T23:40:56.616Z,102163.94
2022-11-10T23:43:24.468Z,102166.84
2022-11-10T23:46:06.488Z,102155.50
2022-11-10T23:48:35.064Z,102156.13
2022-11-10T23:51:01.700Z,102164.22
2022-11-10T23:53:28.231Z,102157.69
2022-11-10T23:55:59.021Z,102170.25
2022-11-10T23:58:26.168Z,102175.44
